Time;durP1;ratioP1;P1;durP2;ratioP2;P2;SDS_P1;SDS_P2;PMS_P1;PMS_P2;Temp;Humidity;BMP_temperature;BMP_pressure;BME280_temperature;BME280_humidity;BME280_pressure;Samples;Min_cycle;Max_cycle;Signal;HPM_P1;HPM_P2
2022/08/15 00:00:09;;;;;;;4.13;2.92;;;;;;;16.42;100.00;92529.75;5090521;28;20052;-76
2022/08/15 00:02:36;;;;;;;4.80;2.75;;;;;;;16.46;100.00;92531.81;5096866;28;20050;-75
2022/08/15 00:05:04;;;;;;;4.28;3.10;;;;;;;16.45;100.00;92533.66;5111182;28;20043;-75
2022/08/15 00:07:31;;;;;;;4.22;3.30;;;;;;;16.47;100.00;92533.41;5110786;28;20057;-75
2022/08/15 00:09:58;;;;;;;4.32;3.58;;;;;;;16.47;100.00;92528.97;5111143;28;20044;-75
2022/08/15 00:12:25;;;;;;;4.72;2.85;;;;;;;16.48;100.00;92527.94;5110823;28;20047;-75
2022/08/15 00:14:52;;;;;;;5.63;3.33;;;;;;;16.45;100.00;92525.09;5110880;28;20044;-75
2022/08/15 00:17:20;;;;;;;4.75;3.05;;;;;;;16.40;100.00;92528.47;5110635;28;20047;-75
2022/08/15 00:19:48;;;;;;;4.93;3.58;;;;;;;16.33;100.00;92523.56;5110753;28;20084;-75
2022/08/15 00:22:17;;;;;;;5.43;3.47;;;;;;;16.22;100.00;92519.44;5110352;28;20127;-75
2022/08/15 00:24:45;;;;;;;6.35;3.50;;;;;;;16.12;100.00;92513.22;5110856;28;20150;-75
2022/08/15 00:27:12;;;;;;;4.70;3.38;;;;;;;16.14;100.00;92524.09;5110733;28;20043;-75
2022/08/15 00:29:40;;;;;;;5.50;3.08;;;;;;;16.11;100.00;92526.44;5110492;28;20490;-75
2022/08/15 00:32:09;;;;;;;5.00;3.67;;;;;;;16.09;100.00;92518.13;5110861;28;20078;-76
2022/08/15 00:34:36;;;;;;;4.53;3.22;;;;;;;16.04;100.00;92518.94;5096382;28;20051;-75
2022/08/15 00:37:03;;;;;;;3.95;3.22;;;;;;;16.01;100.00;92517.63;5109481;28;20105;-75
2022/08/15 00:39:31;;;;;;;4.68;3.53;;;;;;;15.99;100.00;92513.75;5110347;28;20058;-75
2022/08/15 00:42:00;;;;;;;5.60;3.38;;;;;;;15.90;100.00;92509.06;5110338;28;20479;-75
2022/08/15 00:44:30;;;;;;;5.25;3.78;;;;;;;15.96;100.00;92524.66;5110243;28;20105;-75
2022/08/15 00:47:00;;;;;;;5.18;3.35;;;;;;;15.98;100.00;92522.56;5110227;28;20127;-75
2022/08/15 00:49:30;;;;;;;5.22;3.33;;;;;;;16.00;100.00;92510.91;5110236;28;20105;-75
2022/08/15 00:52:00;;;;;;;4.70;3.35;;;;;;;16.02;100.00;92510.66;5110281;28;20085;-75
2022/08/15 00:54:31;;;;;;;4.28;3.40;;;;;;;15.94;100.00;92487.84;5109879;28;20491;-74
2022/08/15 00:57:03;;;;;;;5.93;3.20;;;;;;;16.05;100.00;92506.78;5109906;28;20164;-74
2022/08/15 00:59:37;;;;;;;3.78;3.03;;;;;;;16.02;100.00;92510.66;5109958;28;20044;-74
2022/08/15 01:02:07;;;;;;;6.13;3.20;;;;;;;15.93;100.00;92497.44;5110114;28;20046;-74
2022/08/15 01:04:34;;;;;;;3.85;2.58;;;;;;;15.92;100.00;92493.25;5110032;28;20039;-74
2022/08/15 01:07:01;;;;;;;5.03;3.17;;;;;;;15.88;100.00;92485.22;5110042;28;20036;-73
2022/08/15 01:09:29;;;;;;;5.93;3.35;;;;;;;15.80;100.00;92479.81;5109859;28;20070;-74
2022/08/15 01:12:03;;;;;;;4.15;2.97;;;;;;;15.86;100.00;92479.56;5109604;28;20039;-73
2022/08/15 01:14:32;;;;;;;4.53;3.30;;;;;;;15.86;100.00;92486.53;5110743;28;20059;-74
2022/08/15 01:16:59;;;;;;;5.38;3.70;;;;;;;15.89;100.00;92494.56;5110525;28;20118;-74
2022/08/15 01:19:30;;;;;;;9.05;3.38;;;;;;;15.78;100.00;92482.66;5109516;28;20047;-74
2022/08/15 01:22:21;;;;;;;5.53;3.30;;;;;;;15.84;100.00;92486.78;5109498;28;20545;-74
2022/08/15 01:24:58;;;;;;;5.38;3.70;;;;;;;15.85;100.00;92490.16;5109776;28;20384;-75
2022/08/15 01:27:30;;;;;;;7.50;3.45;;;;;;;15.81;100.00;92483.94;5109387;28;20427;-76
2022/08/15 01:29:58;;;;;;;5.35;3.40;;;;;;;15.79;100.00;92480.84;5109368;28;20051;-75
2022/08/15 01:32:25;;;;;;;4.40;3.17;;;;;;;15.76;100.00;92490.69;5102034;28;20446;-75
2022/08/15 01:34:52;;;;;;;5.57;3.58;;;;;;;15.74;100.00;92490.16;5088813;28;20122;-75
2022/08/15 01:37:20;;;;;;;6.57;3.25;;;;;;;15.73;100.00;92495.59;5089117;28;20055;-75
2022/08/15 01:39:55;;;;;;;6.13;3.55;;;;;;;15.70;100.00;92498.72;5089026;28;20055;-74
2022/08/15 01:42:29;;;;;;;3.90;3.15;;;;;;;15.66;100.00;92495.88;5107728;28;20047;-74
2022/08/15 01:45:01;;;;;;;5.95;3.65;;;;;;;15.54;100.00;92485.75;5108956;28;20130;-74
2022/08/15 01:47:34;;;;;;;5.03;3.80;;;;;;;15.61;100.00;92496.63;5108539;28;20048;-74
2022/08/15 01:50:08;;;;;;;4.55;3.30;;;;;;;15.57;100.00;92503.38;5109389;28;20039;-75
2022/08/15 01:52:40;;;;;;;5.03;3.72;;;;;;;15.54;100.00;92490.16;5108978;28;20054;-75
2022/08/15 01:55:11;;;;;;;11.40;4.00;;;;;;;15.55;100.00;92487.31;5108977;28;20039;-75
2022/08/15 01:57:38;;;;;;;4.47;3.33;;;;;;;15.45;100.00;92487.28;5096679;28;20047;-75
2022/08/15 02:00:06;;;;;;;8.68;4.07;;;;;;;15.42;100.00;92480.81;5088619;28;20040;-74
2022/08/15 02:02:34;;;;;;;7.60;4.00;;;;;;;15.42;100.00;92480.81;5088828;28;20051;-74
2022/08/15 02:05:01;;;;;;;5.30;3.45;;;;;;;15.36;100.00;92481.84;5088907;28;20077;-75
2022/08/15 02:07:29;;;;;;;6.40;3.70;;;;;;;15.34;100.00;92482.13;5088736;28;20113;-74
2022/08/15 02:09:57;;;;;;;6.65;3.80;;;;;;;15.31;100.00;92481.84;5088559;28;20044;-74
2022/08/15 02:12:29;;;;;;;5.72;3.85;;;;;;;15.25;100.00;92481.06;5088533;28;20500;-74
2022/08/15 02:14:56;;;;;;;6.65;3.85;;;;;;;15.26;100.00;92487.00;5106480;28;20100;-73
2022/08/15 02:17:23;;;;;;;5.32;4.00;;;;;;;15.24;100.00;92495.03;5109119;28;20052;-74
2022/08/15 02:19:51;;;;;;;5.30;4.13;;;;;;;15.24;100.00;92492.47;5108811;28;20480;-74
2022/08/15 02:22:20;;;;;;;7.03;4.65;;;;;;;15.23;100.00;92496.84;5109130;28;20052;-74
2022/08/15 02:24:47;;;;;;;6.65;4.85;;;;;;;15.26;100.00;92502.53;5108750;28;20035;-74
2022/08/15 02:27:14;;;;;;;7.00;4.85;;;;;;;15.27;100.00;92504.09;5108648;28;20043;-74
2022/08/15 02:29:43;;;;;;;8.25;6.00;;;;;;;15.19;100.00;92513.13;5108836;28;20036;-74
2022/08/15 02:32:15;;;;;;;8.73;7.00;;;;;;;15.11;100.00;92511.81;5108978;28;20043;-73
2022/08/15 02:34:43;;;;;;;8.23;6.13;;;;;;;15.17;100.00;92515.19;5108811;28;20044;-73
2022/08/15 02:37:11;;;;;;;9.13;7.13;;;;;;;15.18;100.00;92521.94;5108391;28;20059;-73
2022/08/15 02:39:40;;;;;;;9.85;6.90;;;;;;;15.20;100.00;92530.22;5108883;28;20128;-73
2022/08/15 02:42:08;;;;;;;8.75;6.88;;;;;;;15.22;100.00;92526.34;5108794;28;20043;-73
2022/08/15 02:44:34;;;;;;;8.00;6.88;;;;;;;15.25;100.00;92535.41;5108825;28;20044;-73
2022/08/15 02:47:03;;;;;;;7.95;6.22;;;;;;;15.30;100.00;92537.22;5108876;28;20444;-73
2022/08/15 02:49:31;;;;;;;7.43;5.72;;;;;;;15.15;100.00;92518.06;5108560;28;20047;-73
2022/08/15 02:51:58;;;;;;;8.27;5.28;;;;;;;15.36;100.00;92542.16;5108758;28;20044;-74
2022/08/15 02:54:26;;;;;;;7.53;4.95;;;;;;;15.39;100.00;92543.47;5108998;28;20047;-74
2022/08/15 02:56:54;;;;;;;7.25;5.22;;;;;;;15.46;100.00;92551.75;5108634;28;20062;-73
2022/08/15 02:59:23;;;;;;;8.30;4.93;;;;;;;14.78;100.00;92455.09;5110748;28;20050;-73
2022/08/15 03:01:50;;;;;;;8.38;5.32;;;;;;;15.40;100.00;92544.22;5112734;28;20044;-73
2022/08/15 03:04:23;;;;;;;6.82;5.32;;;;;;;15.58;100.00;92568.84;5112256;28;20089;-73
2022/08/15 03:06:53;;;;;;;9.52;5.18;;;;;;;15.62;100.00;92569.91;5112361;28;20083;-73
2022/08/15 03:09:22;;;;;;;9.88;5.20;;;;;;;15.66;100.00;92565.78;5112121;28;20047;-74
2022/08/15 03:11:49;;;;;;;7.40;5.40;;;;;;;15.65;100.00;92564.22;5112213;28;20126;-73
2022/08/15 03:14:19;;;;;;;7.30;5.70;;;;;;;15.68;100.00;92561.09;5112268;28;20120;-75
2022/08/15 03:16:48;;;;;;;6.75;5.07;;;;;;;15.65;100.00;92561.63;5112015;28;20062;-74
2022/08/15 03:19:16;;;;;;;8.38;6.47;;;;;;;15.75;100.00;92566.78;5111817;28;20059;-74
2022/08/15 03:21:45;;;;;;;7.53;5.43;;;;;;;15.80;100.00;92583.38;5112273;28;20054;-74
2022/08/15 03:24:13;;;;;;;10.75;5.50;;;;;;;15.84;100.00;92584.44;5112177;28;20148;-74
2022/08/15 03:26:40;;;;;;;8.10;5.50;;;;;;;15.65;100.00;92548.69;5111820;28;20047;-74
2022/08/15 03:29:08;;;;;;;8.27;5.45;;;;;;;15.89;100.00;92590.38;5111842;28;20043;-74
2022/08/15 03:31:35;;;;;;;7.90;6.30;;;;;;;15.89;100.00;92587.78;5111853;28;20080;-74
2022/08/15 03:34:03;;;;;;;8.93;6.50;;;;;;;15.90;100.00;92591.16;5111808;28;20043;-74
2022/08/15 03:36:30;;;;;;;7.65;6.07;;;;;;;15.89;100.00;92590.38;5111226;28;20101;-74
2022/08/15 03:38:58;;;;;;;9.85;6.63;;;;;;;15.91;100.00;92587.53;5111880;28;20046;-74
2022/08/15 03:41:25;;;;;;;8.98;6.50;;;;;;;15.95;100.00;92590.41;5111703;28;20963;-74
2022/08/15 03:43:53;;;;;;;9.13;6.90;;;;;;;15.98;100.00;92587.31;5111580;28;20097;-74
2022/08/15 03:46:21;;;;;;;9.85;6.72;;;;;;;16.03;100.00;92595.09;5111687;28;20136;-74
2022/08/15 03:48:50;;;;;;;12.65;8.13;;;;;;;16.09;100.00;92593.28;5111505;28;20047;-74
2022/08/15 03:51:18;;;;;;;10.30;6.55;;;;;;;16.05;100.00;92577.47;5111577;28;20502;-74
2022/08/15 03:53:49;;;;;;;8.27;6.55;;;;;;;16.13;100.00;92604.69;5111482;28;20115;-74
2022/08/15 03:56:19;;;;;;;8.40;6.25;;;;;;;16.11;100.00;92593.81;5111332;28;20044;-74
2022/08/15 03:58:47;;;;;;;9.10;5.63;;;;;;;16.15;100.00;92597.41;5107086;28;20035;-74
2022/08/15 04:01:17;;;;;;;8.65;5.45;;;;;;;16.13;100.00;92596.91;5091548;28;20048;-74
2022/08/15 04:03:45;;;;;;;11.30;5.70;;;;;;;16.19;100.00;92600.28;5091284;28;20482;-75
2022/08/15 04:06:14;;;;;;;9.18;5.80;;;;;;;16.21;100.00;92604.19;5091084;28;20049;-75
2022/08/15 04:08:41;;;;;;;6.85;5.57;;;;;;;16.24;100.00;92600.28;5091138;28;20076;-75
2022/08/15 04:11:08;;;;;;;8.77;5.72;;;;;;;16.14;100.00;92588.88;5090190;28;20044;-75
2022/08/15 04:13:39;;;;;;;9.25;6.25;;;;;;;16.16;100.00;92583.44;5091271;28;20046;-76
2022/08/15 04:16:07;;;;;;;8.45;6.47;;;;;;;16.25;100.00;92597.41;5090764;28;20054;-75
2022/08/15 04:18:33;;;;;;;9.50;6.22;;;;;;;16.34;100.00;92597.66;5090890;28;20093;-75
2022/08/15 04:21:03;;;;;;;9.70;6.05;;;;;;;16.27;100.00;92582.41;5090690;28;20040;-75
2022/08/15 04:23:30;;;;;;;10.05;6.72;;;;;;;16.32;100.00;92571.25;5091041;28;20050;-75
2022/08/15 04:25:57;;;;;;;8.55;5.78;;;;;;;16.47;100.00;92583.41;5090668;28;20040;-75
2022/08/15 04:28:26;;;;;;;13.70;6.70;;;;;;;16.01;100.00;92507.28;5090923;28;20052;-75
2022/08/15 04:30:54;;;;;;;10.68;7.10;;;;;;;16.52;100.00;92578.22;5090773;28;20048;-74
2022/08/15 04:33:24;;;;;;;11.32;6.97;;;;;;;16.58;100.00;92576.41;5090504;28;20044;-74
2022/08/15 04:35:54;;;;;;;11.15;7.10;;;;;;;16.62;100.00;92580.00;5090507;28;20055;-75
2022/08/15 04:38:21;;;;;;;12.60;7.50;;;;;;;16.69;100.00;92582.34;5090659;28;20052;-75
2022/08/15 04:40:49;;;;;;;10.70;6.80;;;;;;;16.73;100.00;92591.16;5090519;28;20048;-75
2022/08/15 04:43:17;;;;;;;11.88;8.20;;;;;;;16.77;100.00;92591.41;5092985;28;20044;-75
2022/08/15 04:45:44;;;;;;;13.65;8.00;;;;;;;16.69;100.00;92585.72;5102044;28;20052;-75
2022/08/15 04:48:15;;;;;;;10.48;7.28;;;;;;;16.84;100.00;92594.47;5090185;28;20077;-75
2022/08/15 04:50:44;;;;;;;11.65;7.07;;;;;;;16.91;100.00;92596.81;5090250;28;20098;-74
2022/08/15 04:53:12;;;;;;;11.50;8.35;;;;;;;16.95;100.00;92590.81;5090403;28;20044;-74
2022/08/15 04:55:41;;;;;;;10.75;7.70;;;;;;;17.02;100.00;92590.53;5090525;28;20044;-74
2022/08/15 04:58:09;;;;;;;10.57;7.90;;;;;;;17.06;100.00;92596.78;5089794;28;20504;-74
2022/08/15 05:00:37;;;;;;;12.20;8.93;;;;;;;17.12;100.00;92605.31;5090013;28;20089;-74
2022/08/15 05:03:06;;;;;;;14.80;8.88;;;;;;;17.16;100.00;92603.75;5090204;28;20106;-74
2022/08/15 05:05:37;;;;;;;11.35;8.05;;;;;;;17.22;100.00;92594.91;5090174;28;20044;-74
2022/08/15 05:08:05;;;;;;;12.73;8.30;;;;;;;17.28;100.00;92600.09;5089855;28;20047;-74
2022/08/15 05:10:32;;;;;;;13.23;8.65;;;;;;;17.33;100.00;92602.66;5090027;28;20139;-74
2022/08/15 05:13:08;;;;;;;13.38;8.75;;;;;;;17.36;100.00;92589.16;5090112;28;20075;-74
2022/08/15 05:15:35;;;;;;;15.55;9.30;;;;;;;17.38;100.00;92576.69;5089720;28;20134;-74
2022/08/15 05:18:02;;;;;;;16.17;9.45;;;;;;;17.50;100.00;92586.75;5089926;28;20048;-74
2022/08/15 05:20:29;;;;;;;12.07;8.95;;;;;;;17.52;100.00;92584.66;5089886;28;20044;-74
2022/08/15 05:22:59;;;;;;;13.52;9.15;;;;;;;17.61;100.00;92592.66;5089776;28;20488;-74
2022/08/15 05:25:26;;;;;;;11.73;8.30;;;;;;;17.68;100.00;92593.13;5089538;28;20496;-74
2022/08/15 05:27:53;;;;;;;12.55;9.05;;;;;;;17.75;100.00;92593.63;5089530;28;20048;-74
2022/08/15 05:30:20;;;;;;;13.20;8.43;;;;;;;17.80;100.00;92592.81;5089840;28;20397;-75
2022/08/15 05:32:47;;;;;;;12.50;8.88;;;;;;;17.71;100.00;92592.59;5087749;28;20054;-74
2022/08/15 05:35:15;;;;;;;16.45;9.98;;;;;;;17.70;100.00;92592.88;5098038;28;20056;-74
2022/08/15 05:37:44;;;;;;;14.27;10.25;;;;;;;17.56;100.00;92588.28;5088178;28;20431;-74
2022/08/15 05:40:13;;;;;;;14.60;10.32;;;;;;;17.50;100.00;92594.53;5089554;28;20067;-74
2022/08/15 05:42:49;;;;;;;13.88;9.77;;;;;;;17.57;100.00;92604.63;5089193;28;20048;-74
2022/08/15 05:45:26;;;;;;;14.63;9.55;;;;;;;17.71;100.00;92604.81;5103835;28;20044;-74
2022/08/15 05:48:03;;;;;;;14.13;9.32;;;;;;;17.85;100.00;92602.38;5089207;28;20171;-75
2022/08/15 05:50:32;;;;;;;14.00;9.65;;;;;;;18.00;100.00;92606.69;5103416;28;20040;-76
2022/08/15 05:53:08;;;;;;;12.57;9.23;;;;;;;18.13;100.00;92615.72;5102405;28;20104;-76
2022/08/15 05:55:43;;;;;;;12.95;9.00;;;;;;;18.23;100.00;92610.47;5089495;28;20106;-74
2022/08/15 05:58:26;;;;;;;13.38;9.05;;;;;;;18.39;100.00;92611.13;5089188;28;20527;-74
2022/08/15 06:01:02;;;;;;;13.13;9.48;;;;;;;18.49;100.00;92609.47;5089094;28;20488;-74
2022/08/15 06:03:30;;;;;;;15.80;9.50;;;;;;;18.56;100.00;92615.91;5088606;28;20040;-74
2022/08/15 06:06:00;;;;;;;11.43;8.60;;;;;;;18.65;100.00;92610.13;5089136;28;20044;-74
2022/08/15 06:08:31;;;;;;;15.38;10.25;;;;;;;18.75;100.00;92612.63;5089190;28;20100;-74
2022/08/15 06:11:10;;;;;;;17.77;11.30;;;;;;;18.84;100.00;92602.38;5089084;28;20446;-74
2022/08/15 06:13:43;;;;;;;16.27;10.93;;;;;;;18.96;100.00;92604.63;5089258;28;20051;-74
2022/08/15 06:16:16;;;;;;;15.73;10.68;;;;;;;18.94;100.00;92594.47;5089078;28;20052;-74
2022/08/15 06:18:44;;;;;;;17.40;12.05;;;;;;;18.86;100.00;92602.91;5089033;28;20483;-75
2022/08/15 06:21:20;;;;;;;19.55;13.25;;;;;;;18.65;100.00;92586.72;5089221;28;20407;-74
2022/08/15 06:24:01;;;;;;;21.42;14.10;;;;;;;18.85;100.00;92610.97;5089064;28;20101;-74
2022/08/15 06:26:41;;;;;;;20.05;14.38;;;;;;;18.90;100.00;92616.91;5088707;28;20094;-74
2022/08/15 06:29:30;;;;;;;21.35;14.30;;;;;;;18.89;100.00;92612.75;5088498;28;20085;-74
2022/08/15 06:32:03;;;;;;;17.92;13.60;;;;;;;18.95;100.00;92616.06;5088843;28;20048;-74
2022/08/15 06:34:40;;;;;;;19.58;13.55;;;;;;;18.81;100.00;92621.94;5091167;28;20496;-74
2022/08/15 06:37:14;;;;;;;24.15;13.20;;;;;;;18.91;100.00;92625.47;5092496;28;20614;-76
2022/08/15 06:39:48;;;;;;;18.55;12.65;;;;;;;18.98;100.00;92625.16;5092899;28;20093;-76
2022/08/15 06:42:23;;;;;;;17.02;11.82;;;;;;;19.06;100.00;92627.97;5092982;28;20048;-76
2022/08/15 06:44:52;;;;;;;17.83;12.88;;;;;;;19.18;100.00;92630.19;5107097;28;20044;-76
2022/08/15 06:47:22;;;;;;;20.35;13.20;;;;;;;19.18;100.00;92624.97;5092827;28;20056;-76
2022/08/15 06:49:56;;;;;;;18.10;12.85;;;;;;;19.24;100.00;92636.09;5092627;28;20101;-77
2022/08/15 06:52:23;;;;;;;19.40;13.45;;;;;;;19.22;100.00;92620.75;5092608;28;20492;-76
2022/08/15 06:54:50;;;;;;;19.48;12.80;;;;;;;19.42;100.00;92632.00;5092822;28;20483;-76
2022/08/15 06:57:34;;;;;;;19.02;13.15;;;;;;;19.41;100.00;92625.25;5092550;28;20165;-76
2022/08/15 07:00:08;;;;;;;20.33;13.38;;;;;;;19.60;100.00;92632.28;5092723;28;20093;-77
2022/08/15 07:02:48;;;;;;;19.67;14.38;;;;;;;19.75;100.00;92632.09;5092226;28;20058;-76
2022/08/15 07:05:23;;;;;;;21.27;13.60;;;;;;;19.89;100.00;92632.19;5092174;28;20520;-77
2022/08/15 07:07:57;;;;;;;21.17;14.43;;;;;;;20.03;100.00;92639.31;5092720;28;20052;-77
2022/08/15 07:10:31;;;;;;;20.90;14.40;;;;;;;20.08;100.00;92638.50;5092380;28;20097;-77
2022/08/15 07:13:12;;;;;;;21.45;13.88;;;;;;;19.97;100.00;92633.41;5092313;28;20508;-77
2022/08/15 07:15:50;;;;;;;20.70;14.25;;;;;;;20.05;100.00;92639.03;5089896;28;20044;-77
2022/08/15 07:18:25;;;;;;;19.70;13.70;;;;;;;20.05;100.00;92621.56;5090526;28;20101;-77
2022/08/15 07:20:59;;;;;;;21.48;15.50;;;;;;;20.17;100.00;92636.78;5092404;28;20040;-77
2022/08/15 07:23:29;;;;;;;23.17;16.48;;;;;;;20.15;100.00;92628.47;5091915;28;20492;-77
2022/08/15 07:26:02;;;;;;;26.20;16.67;;;;;;;20.32;100.00;92640.22;5092019;28;20172;-77
2022/08/15 07:28:33;;;;;;;21.13;16.35;;;;;;;20.61;100.00;92634.81;5092009;28;20486;-77
2022/08/15 07:31:06;;;;;;;23.10;16.67;;;;;;;20.80;100.00;92642.56;5091800;28;20488;-77
2022/08/15 07:33:40;;;;;;;21.00;16.58;;;;;;;20.83;100.00;92623.72;5091732;28;20040;-77
2022/08/15 07:36:14;;;;;;;25.20;18.05;;;;;;;20.55;100.00;92641.94;5091566;28;20131;-78
2022/08/15 07:38:42;;;;;;;24.48;17.80;;;;;;;20.95;100.00;92648.59;5091666;28;20055;-77
2022/08/15 07:41:20;;;;;;;24.88;17.38;;;;;;;21.21;100.00;92654.13;5091673;28;20131;-76
2022/08/15 07:43:48;;;;;;;27.38;18.48;;;;;;;21.47;100.00;92658.88;5098114;28;20590;-77
2022/08/15 07:46:19;;;;;;;22.48;15.55;;;;;;;21.57;100.00;92663.13;5097883;28;20044;-77
2022/08/15 07:48:56;;;;;;;25.15;17.65;;;;;;;21.74;100.00;92659.19;5091962;28;20048;-77
2022/08/15 07:51:26;;;;;;;22.23;16.50;;;;;;;21.91;100.00;92661.19;5091540;28;20054;-78
2022/08/15 07:53:56;;;;;;;21.77;16.80;;;;;;;21.83;100.00;92672.34;5091493;28;20551;-79
2022/08/15 07:56:24;;;;;;;20.75;16.15;;;;;;;21.45;100.00;92674.09;5091737;28;20492;-77
2022/08/15 07:58:55;;;;;;;21.98;16.48;;;;;;;21.66;100.00;92673.69;5091207;28;20051;-77
2022/08/15 08:01:25;;;;;;;22.35;15.98;;;;;;;21.77;100.00;92682.13;5091178;28;20526;-77
2022/08/15 08:03:58;;;;;;;21.98;15.57;;;;;;;21.78;100.00;92659.34;5091337;28;20567;-77
2022/08/15 08:06:32;;;;;;;24.27;15.52;;;;;;;22.05;100.00;92687.31;5091442;28;20108;-79
2022/08/15 08:09:08;;;;;;;20.52;15.25;;;;;;;22.13;100.00;92694.44;5091173;28;20040;-78
2022/08/15 08:11:46;;;;;;;19.90;15.00;;;;;;;22.27;100.00;92691.78;5091315;28;20139;-78
2022/08/15 08:14:24;;;;;;;21.80;16.08;;;;;;;21.29;100.00;92689.25;5091385;28;20044;-78
2022/08/15 08:16:56;;;;;;;19.35;14.20;;;;;;;21.50;100.00;92678.44;5091460;28;20097;-78
2022/08/15 08:19:34;;;;;;;19.20;14.85;;;;;;;21.84;100.00;92686.97;5091273;28;20044;-79
2022/08/15 08:22:11;;;;;;;21.65;15.68;;;;;;;21.94;100.00;92667.69;5090378;28;20150;-78
2022/08/15 08:24:51;;;;;;;19.80;15.70;;;;;;;22.33;100.00;92689.84;5088393;28;20142;-78
2022/08/15 08:27:31;;;;;;;21.02;15.75;;;;;;;22.41;100.00;92678.66;5089922;28;20440;-78
2022/08/15 08:30:05;;;;;;;20.90;15.35;;;;;;;22.57;99.02;92686.19;5090805;28;20492;-77
2022/08/15 08:32:43;;;;;;;19.35;15.18;;;;;;;22.71;98.30;92680.91;5105121;28;20460;-78
2022/08/15 08:35:18;;;;;;;21.25;15.82;;;;;;;22.91;96.17;92690.09;5093022;28;20442;-78
2022/08/15 08:37:50;;;;;;;;;;;;;;;23.05;96.71;92695.25;5111188;28;20047;-78
2022/08/15 08:43:23;;;;;;;21.67;15.80;;;;;;;23.25;95.70;92689.81;5094452;28;20051;-78
2022/08/15 08:46:00;;;;;;;18.95;14.63;;;;;;;23.35;95.34;92687.72;5110585;28;20479;-79
2022/08/15 08:48:39;;;;;;;21.70;15.55;;;;;;;23.52;95.78;92691.50;5110345;28;20471;-78
2022/08/15 08:51:14;;;;;;;21.42;14.52;;;;;;;23.70;95.43;92675.81;5110066;28;20040;-78
2022/08/15 08:53:49;;;;;;;22.50;15.75;;;;;;;23.97;92.72;92679.25;5106821;28;20044;-78
2022/08/15 08:56:23;;;;;;;19.45;14.38;;;;;;;24.21;89.09;92686.69;5089631;28;20138;-78
2022/08/15 08:58:54;;;;;;;19.08;13.82;;;;;;;23.89;91.12;92684.16;5089358;28;20097;-78
2022/08/15 09:01:26;;;;;;;18.05;14.32;;;;;;;22.88;94.89;92671.59;5089913;28;20036;-78
2022/08/15 09:04:02;;;;;;;20.08;14.77;;;;;;;22.70;95.59;92663.66;5089807;28;20044;-78
2022/08/15 09:06:37;;;;;;;22.58;15.73;;;;;;;22.77;96.45;92673.72;5095918;28;20147;-78
2022/08/15 09:09:08;;;;;;;20.88;15.68;;;;;;;22.65;96.25;92656.69;5089705;28;20526;-78
2022/08/15 09:11:41;;;;;;;20.35;14.93;;;;;;;23.23;97.82;92669.91;5089629;28;20040;-78
2022/08/15 09:14:14;;;;;;;21.88;15.57;;;;;;;23.61;95.78;92652.94;5089551;28;20044;-78
2022/08/15 09:16:44;;;;;;;18.65;14.23;;;;;;;24.19;94.23;92664.47;5090149;28;20136;-78
2022/08/15 09:19:16;;;;;;;18.50;14.80;;;;;;;24.58;91.74;92662.78;5090067;28;20048;-78
2022/08/15 09:21:45;;;;;;;18.17;13.90;;;;;;;24.50;88.74;92658.28;5096298;28;20044;-77
2022/08/15 09:24:13;;;;;;;18.30;14.05;;;;;;;24.84;85.71;92659.34;5106035;28;20411;-78
2022/08/15 09:26:49;;;;;;;19.90;14.63;;;;;;;24.66;82.57;92666.44;5102820;28;20044;-78
2022/08/15 09:29:24;;;;;;;20.25;13.98;;;;;;;25.11;85.88;92665.28;5096163;28;20087;-78
2022/08/15 09:32:02;;;;;;;21.27;15.07;;;;;;;24.63;84.41;92665.22;5090031;28;20051;-78
2022/08/15 09:34:47;;;;;;;19.23;13.18;;;;;;;25.11;85.42;92643.50;5089628;28;20044;-78
2022/08/15 09:37:27;;;;;;;19.95;14.48;;;;;;;25.38;85.51;92675.69;5089520;28;20052;-78
2022/08/15 09:40:21;;;;;;;17.98;14.05;;;;;;;25.42;83.88;92663.47;5089443;28;20048;-78
2022/08/15 09:43:07;;;;;;;18.38;14.07;;;;;;;25.12;81.93;92668.72;5089426;28;20053;-78
2022/08/15 09:45:50;;;;;;;16.52;13.25;;;;;;;25.15;80.21;92662.81;5090158;28;20438;-78
2022/08/15 09:48:38;;;;;;;16.33;13.13;;;;;;;25.31;78.80;92658.56;5089240;28;20097;-79
2022/08/15 09:51:35;;;;;;;16.95;13.60;;;;;;;25.34;79.09;92657.16;5089444;28;20500;-78
2022/08/15 09:54:16;;;;;;;16.92;13.70;;;;;;;25.53;83.39;92656.00;5089589;28;20044;-77
2022/08/15 09:56:44;;;;;;;18.15;13.63;;;;;;;26.10;82.30;92654.75;5089938;28;20130;-78
2022/08/15 09:59:17;;;;;;;17.98;13.55;;;;;;;26.59;79.38;92632.38;5090164;28;20101;-78
2022/08/15 10:01:47;;;;;;;17.20;13.32;;;;;;;25.60;78.95;92662.31;5089373;28;20047;-79
2022/08/15 10:04:17;;;;;;;20.80;13.23;;;;;;;26.01;80.04;92656.69;5094060;28;20097;-78
2022/08/15 10:06:58;;;;;;;15.75;11.93;;;;;;;26.17;78.72;92654.25;5092494;28;20054;-78
2022/08/15 10:09:35;;;;;;;15.80;12.70;;;;;;;26.11;72.85;92639.75;5088115;28;20097;-79
2022/08/15 10:12:22;;;;;;;14.85;12.18;;;;;;;26.43;75.17;92645.41;5091308;28;20053;-78
2022/08/15 10:15:04;;;;;;;15.68;11.02;;;;;;;25.34;80.61;92610.63;5089206;28;20579;-79
2022/08/15 10:17:45;;;;;;;13.00;10.02;;;;;;;25.33;76.64;92642.50;5103144;28;20044;-78
2022/08/15 10:20:59;;;;;;;13.45;10.80;;;;;;;25.64;75.92;92603.84;5089249;28;20048;-78
2022/08/15 10:23:41;;;;;;;14.85;9.98;;;;;;;26.02;75.91;92630.03;5074453;28;20084;-78
2022/08/15 10:26:15;;;;;;;14.88;10.52;;;;;;;26.57;74.51;92610.88;5088869;28;20511;-79
2022/08/15 10:29:01;;;;;;;12.02;10.02;;;;;;;26.13;73.13;92616.50;5089216;28;20089;-79
2022/08/15 10:31:31;;;;;;;12.65;9.18;;;;;;;26.49;72.70;92617.78;5088810;28;20533;-79
2022/08/15 10:34:02;;;;;;;11.38;9.52;;;;;;;26.59;71.53;92615.81;5089400;28;20075;-79
2022/08/15 10:36:34;;;;;;;12.27;9.68;;;;;;;26.18;73.06;92613.66;5088718;28;20171;-79
2022/08/15 10:39:26;;;;;;;10.35;8.32;;;;;;;26.59;71.21;92607.91;5089238;28;20057;-79
2022/08/15 10:42:03;;;;;;;11.75;8.82;;;;;;;25.92;72.70;92611.25;5088885;28;20124;-79
2022/08/15 10:44:46;;;;;;;13.40;9.65;;;;;;;26.52;69.92;92600.56;5095031;28;20039;-79
2022/08/15 10:47:23;;;;;;;12.73;9.57;;;;;;;26.43;69.64;92603.28;5093994;28;20124;-79
2022/08/15 10:50:04;;;;;;;11.50;9.40;;;;;;;25.51;69.29;92553.78;5097933;28;20496;-79
2022/08/15 10:52:44;;;;;;;10.77;8.80;;;;;;;25.69;73.10;92608.91;5088995;28;20123;-79
2022/08/15 10:55:27;;;;;;;12.23;9.27;;;;;;;25.62;72.20;92601.53;5095832;28;20408;-79
2022/08/15 10:57:59;;;;;;;13.55;9.35;;;;;;;25.73;74.63;92618.47;5106540;28;20047;-78
2022/08/15 11:00:41;;;;;;;11.85;8.75;;;;;;;25.72;69.32;92606.41;5109241;28;20503;-78
2022/08/15 11:03:18;;;;;;;12.80;10.13;;;;;;;26.03;70.89;92622.91;5108693;28;20047;-79
2022/08/15 11:06:01;;;;;;;12.63;8.80;;;;;;;26.24;73.11;92601.88;5103266;28;20048;-79
2022/08/15 11:08:28;;;;;;;15.23;9.57;;;;;;;26.76;72.11;92606.97;5108294;28;20040;-78
2022/08/15 11:11:05;;;;;;;10.90;9.10;;;;;;;26.79;67.81;92604.44;5106621;28;20396;-79
2022/08/15 11:13:33;;;;;;;9.57;8.25;;;;;;;26.94;64.04;92621.50;5089963;28;20079;-79
2022/08/15 11:16:10;;;;;;;11.27;8.82;;;;;;;27.20;66.19;92617.81;5089670;28;20050;-80
2022/08/15 11:18:44;;;;;;;12.57;9.18;;;;;;;27.68;68.15;92603.41;5105775;28;20091;-79
2022/08/15 11:21:27;;;;;;;11.20;9.38;;;;;;;27.43;66.26;92595.50;5095753;28;20442;-79
2022/08/15 11:23:56;;;;;;;11.13;9.60;;;;;;;27.28;67.89;92597.72;5099288;28;20089;-80
2022/08/15 11:26:28;;;;;;;11.43;8.80;;;;;;;27.25;66.33;92616.06;5091804;28;20565;-80
2022/08/15 11:28:57;;;;;;;11.10;9.05;;;;;;;26.66;67.01;92608.91;5091804;28;20052;-79
2022/08/15 11:31:24;;;;;;;10.48;8.38;;;;;;;26.98;66.04;92611.06;5091795;28;20508;-80
2022/08/15 11:33:54;;;;;;;11.60;9.00;;;;;;;26.15;64.55;92609.81;5091521;28;20048;-79
2022/08/15 11:36:25;;;;;;;8.77;7.70;;;;;;;26.45;64.70;92597.66;5092092;28;20048;-79
2022/08/15 11:38:55;;;;;;;9.98;7.82;;;;;;;26.67;61.75;92602.53;5091667;28;20056;-79
2022/08/15 11:41:27;;;;;;;9.52;7.78;;;;;;;26.78;62.88;92607.41;5091293;28;20097;-79
2022/08/15 11:43:58;;;;;;;10.10;8.13;;;;;;;26.96;64.04;92594.84;5107189;28;20237;-79